Time;durP1;ratioP1;P1;durP2;ratioP2;P2;SDS_P1;SDS_P2;PMS_P1;PMS_P2;Temp;Humidity;BMP_temperature;BMP_pressure;BME280_temperature;BME280_humidity;BME280_pressure;Samples;Min_cycle;Max_cycle;Signal;HPM_P1;HPM_P2
2020/12/26 00:00:22;;;;;;;3.27;2.62;;;;;;;3.70;80.34;100579.66;2801405;84;21614;-63
2020/12/26 00:04:28;;;;;;;8.35;4.72;;;;;;;3.70;80.51;100582.28;2812780;84;21128;-61
2020/12/26 00:08:34;;;;;;;4.40;2.62;;;;;;;3.62;80.69;100583.97;2787278;85;21197;-61
2020/12/26 00:12:38;;;;;;;3.60;2.65;;;;;;;3.67;80.82;100583.31;2787400;85;21177;-63
2020/12/26 00:16:42;;;;;;;2.98;2.72;;;;;;;3.70;80.98;100584.91;2787529;85;21173;-63
2020/12/26 00:20:47;;;;;;;4.87;3.50;;;;;;;3.71;81.04;100581.36;2786338;85;21162;-64
2020/12/26 00:24:52;;;;;;;5.37;3.20;;;;;;;3.72;81.01;100581.74;2787926;83;21653;-62
2020/12/26 00:28:56;;;;;;;4.92;2.27;;;;;;;3.70;81.22;100580.52;2821293;84;21602;-63
2020/12/26 00:32:59;;;;;;;4.78;2.22;;;;;;;3.70;81.32;100577.02;2828565;84;21211;-62
2020/12/26 00:37:03;;;;;;;3.55;2.50;;;;;;;3.70;81.49;100579.20;2781835;84;21167;-63
2020/12/26 00:41:14;;;;;;;4.20;1.95;;;;;;;3.72;81.36;100580.43;2781295;85;21156;-62
2020/12/26 00:45:18;;;;;;;3.83;3.08;;;;;;;3.71;81.24;100573.02;2780245;85;21611;-61
2020/12/26 00:49:21;;;;;;;2.87;2.22;;;;;;;3.73;81.35;100579.50;2786415;84;21180;-61
2020/12/26 00:53:27;;;;;;;3.60;2.02;;;;;;;3.74;81.35;100566.77;2809817;84;21176;-62
2020/12/26 00:57:33;;;;;;;3.22;2.92;;;;;;;3.64;81.00;100570.30;2793336;84;21152;-62
2020/12/26 01:01:37;;;;;;;9.00;5.37;;;;;;;3.64;81.51;100579.52;2808676;84;21172;-62
2020/12/26 01:05:43;;;;;;;4.95;2.50;;;;;;;3.61;81.71;100582.27;2793029;84;21135;-62
2020/12/26 01:09:46;;;;;;;5.10;2.77;;;;;;;3.64;82.01;100582.14;2778501;85;21175;-63
2020/12/26 01:13:49;;;;;;;7.95;3.40;;;;;;;3.55;82.17;100591.33;2779246;84;21661;-63
2020/12/26 01:17:53;;;;;;;5.12;2.75;;;;;;;3.59;82.35;100586.75;2784761;84;22243;-63
2020/12/26 01:21:59;;;;;;;3.47;2.12;;;;;;;3.55;82.50;100593.95;2801173;85;21579;-61
2020/12/26 01:26:02;;;;;;;5.05;2.50;;;;;;;3.57;82.69;100585.97;2801333;85;21148;-61
2020/12/26 01:30:08;;;;;;;3.85;2.80;;;;;;;3.60;82.69;100587.62;2800909;84;21176;-62
2020/12/26 01:34:12;;;;;;;5.20;3.72;;;;;;;3.57;82.68;100590.78;2801375;85;21210;-62
2020/12/26 01:38:16;;;;;;;10.63;4.90;;;;;;;3.63;82.83;100590.09;2800956;84;21196;-63
2020/12/26 01:42:21;;;;;;;8.63;4.03;;;;;;;3.62;82.79;100589.71;2728867;85;21172;-61
2020/12/26 01:46:32;;;;;;;7.12;3.30;;;;;;;3.64;82.77;100578.64;2742957;86;21600;-63
2020/12/26 01:50:36;;;;;;;4.90;3.30;;;;;;;3.66;82.64;100574.16;2798199;84;21198;-64
2020/12/26 01:54:40;;;;;;;5.37;3.02;;;;;;;3.64;82.75;100579.96;2779655;84;21169;-61
2020/12/26 01:58:44;;;;;;;6.47;3.33;;;;;;;3.60;82.81;100571.83;2831718;84;21176;-62
2020/12/26 02:02:49;;;;;;;9.53;3.62;;;;;;;3.58;82.88;100573.20;2831910;84;21168;-63
2020/12/26 02:06:59;;;;;;;7.40;4.47;;;;;;;3.51;83.01;100573.96;2810116;84;21600;-62
2020/12/26 02:11:05;;;;;;;3.35;2.58;;;;;;;3.55;82.92;100567.66;2775859;85;21181;-62
2020/12/26 02:15:13;;;;;;;;;;;;;;;3.56;82.80;100586.45;2778387;85;21125;-62
2020/12/26 02:19:20;;;;;;;4.55;3.30;;;;;;;3.52;82.86;100574.34;2728102;87;20182;-62
2020/12/26 02:23:27;;;;;;;6.37;3.45;;;;;;;3.54;82.96;100578.23;2775895;85;21644;-61
2020/12/26 02:27:30;;;;;;;4.80;2.72;;;;;;;3.48;83.04;100575.42;2775914;85;21632;-62
2020/12/26 02:31:35;;;;;;;11.97;4.15;;;;;;;3.49;82.82;100574.50;2775704;85;21188;-63
2020/12/26 02:35:42;;;;;;;5.60;4.45;;;;;;;3.49;82.62;100578.45;2775803;85;21595;-63
2020/12/26 02:39:46;;;;;;;4.95;2.80;;;;;;;3.53;82.68;100561.59;2775812;85;21615;-63
2020/12/26 02:43:49;;;;;;;5.25;3.15;;;;;;;3.54;82.46;100559.82;2780578;84;21189;-61
2020/12/26 02:47:52;;;;;;;5.58;4.15;;;;;;;3.56;82.00;100569.36;2792155;84;21172;-61
2020/12/26 02:51:55;;;;;;;7.40;3.42;;;;;;;3.60;82.11;100585.83;2815968;84;21128;-63
2020/12/26 02:55:58;;;;;;;7.28;4.47;;;;;;;3.54;81.83;100581.73;2800613;84;21183;-62
2020/12/26 03:00:04;;;;;;;5.22;3.40;;;;;;;3.62;81.91;100573.44;2783939;84;21157;-62
2020/12/26 03:04:08;;;;;;;9.88;4.15;;;;;;;3.62;81.60;100569.98;2777552;85;21204;-61
2020/12/26 03:08:12;;;;;;;5.35;3.67;;;;;;;3.65;81.44;100557.54;2777698;85;21140;-63
2020/12/26 03:12:15;;;;;;;5.17;3.70;;;;;;;3.65;81.31;100565.43;2782102;85;21188;-62
2020/12/26 03:16:18;;;;;;;7.28;4.50;;;;;;;3.60;81.27;100573.98;2782065;85;21152;-63
2020/12/26 03:20:22;;;;;;;6.08;4.85;;;;;;;3.60;81.10;100580.56;2781830;85;21129;-64
2020/12/26 03:24:26;;;;;;;6.92;4.20;;;;;;;3.57;80.93;100585.52;2781807;85;21152;-63
2020/12/26 03:28:29;;;;;;;7.42;4.75;;;;;;;3.63;80.78;100584.84;2781895;85;21121;-62
2020/12/26 03:32:33;;;;;;;5.40;3.35;;;;;;;3.64;80.69;100591.80;2781910;85;21149;-60
2020/12/26 03:36:37;;;;;;;6.15;4.70;;;;;;;3.64;80.65;100596.61;2782065;85;21191;-61
2020/12/26 03:40:42;;;;;;;8.45;3.83;;;;;;;3.57;80.21;100594.73;2782005;85;21161;-59
2020/12/26 03:44:47;;;;;;;5.53;3.52;;;;;;;3.56;80.69;100615.39;2781822;85;21144;-60
2020/12/26 03:48:50;;;;;;;5.10;3.05;;;;;;;3.57;80.28;100615.78;2782067;85;21152;-62
2020/12/26 03:52:56;;;;;;;21.97;4.53;;;;;;;3.56;80.27;100619.34;2781881;85;21137;-61
2020/12/26 03:57:02;;;;;;;5.92;3.67;;;;;;;3.52;80.15;100619.06;2756625;85;21146;-61
2020/12/26 04:01:07;;;;;;;;;;;;;;;3.59;79.69;100628.00;2749825;86;21192;-60
2020/12/26 04:05:10;;;;;;;7.20;3.02;;;;;;;3.57;79.97;100626.30;2691620;88;20196;-61
2020/12/26 04:09:14;;;;;;;9.18;3.83;;;;;;;3.49;79.65;100621.01;2727102;87;21147;-61
2020/12/26 04:13:18;;;;;;;6.75;4.53;;;;;;;3.54;80.02;100630.84;2716257;87;21188;-61
2020/12/26 04:17:23;;;;;;;14.73;5.53;;;;;;;3.60;79.80;100641.55;2710960;87;21184;-61
2020/12/26 04:21:28;;;;;;;5.10;3.05;;;;;;;3.60;79.56;100652.07;2736776;87;21124;-60
2020/12/26 04:25:32;;;;;;;4.75;3.47;;;;;;;3.57;79.00;100657.87;2752658;85;21109;-60
2020/12/26 04:29:35;;;;;;;9.48;3.22;;;;;;;3.60;78.78;100654.70;2722972;87;21647;-59
2020/12/26 04:33:39;;;;;;;5.95;4.00;;;;;;;3.65;78.67;100653.56;2711123;87;21607;-59
2020/12/26 04:37:44;;;;;;;5.08;3.35;;;;;;;3.69;78.25;100663.46;2711604;87;21181;-62
2020/12/26 04:41:48;;;;;;;6.08;3.30;;;;;;;3.66;77.30;100650.45;2711482;87;21208;-61
2020/12/26 04:45:54;;;;;;;5.62;3.50;;;;;;;3.70;76.67;100658.14;2741338;86;21221;-60
2020/12/26 04:50:00;;;;;;;3.42;3.12;;;;;;;3.76;76.71;100653.05;2741561;86;21161;-61
2020/12/26 04:54:28;;;;;;;6.97;3.20;;;;;;;3.76;76.33;100643.84;2743308;85;21194;-60
2020/12/26 04:58:36;;;;;;;3.25;2.67;;;;;;;3.81;75.85;100646.23;2783594;85;21165;-64
2020/12/26 05:02:45;;;;;;;5.25;2.80;;;;;;;3.85;76.23;100647.34;2783302;85;21146;-62
2020/12/26 05:06:52;;;;;;;6.53;3.10;;;;;;;3.89;76.04;100649.82;2778775;85;21174;-60
2020/12/26 05:10:56;;;;;;;6.60;3.00;;;;;;;3.90;75.86;100648.45;2783561;85;21620;-59
2020/12/26 05:15:03;;;;;;;4.45;2.17;;;;;;;3.91;75.85;100663.31;2783539;84;21169;-62
2020/12/26 05:19:08;;;;;;;5.33;3.75;;;;;;;3.90;76.02;100664.23;2783277;85;21213;-60
2020/12/26 05:23:16;;;;;;;8.90;2.75;;;;;;;3.86;76.13;100664.83;2783483;85;21641;-62
2020/12/26 05:27:27;;;;;;;3.83;2.37;;;;;;;3.84;75.77;100661.42;2783703;84;21169;-62
2020/12/26 05:31:50;;;;;;;3.77;2.25;;;;;;;3.83;75.58;100664.12;2784103;85;22239;-62
2020/12/26 05:35:53;;;;;;;4.75;2.77;;;;;;;3.82;75.45;100667.67;2783391;85;21182;-60
2020/12/26 05:40:00;;;;;;;5.15;2.70;;;;;;;3.77;75.30;100681.08;2783604;85;21182;-62
2020/12/26 05:44:04;;;;;;;7.97;3.80;;;;;;;3.78;75.28;100679.28;2783301;85;21142;-60
2020/12/26 05:48:16;;;;;;;4.28;2.50;;;;;;;3.77;75.30;100678.44;2783412;85;21685;-61
2020/12/26 05:52:20;;;;;;;6.53;3.25;;;;;;;3.73;75.30;100678.17;2783457;85;21146;-60
2020/12/26 05:56:24;;;;;;;2.98;1.70;;;;;;;3.72;75.55;100673.84;2782902;85;21197;-60
2020/12/26 06:00:40;;;;;;;3.00;1.85;;;;;;;3.70;74.76;100683.58;2783446;85;21181;-59
2020/12/26 06:04:53;;;;;;;7.07;2.97;;;;;;;3.69;74.82;100697.22;2776723;85;21431;-60
2020/12/26 06:09:05;;;;;;;8.53;3.77;;;;;;;3.79;74.95;100694.14;3097339;76;27847;-58
2020/12/26 06:13:09;;;;;;;3.25;2.67;;;;;;;3.77;74.98;100706.08;3078165;77;22219;-58
2020/12/26 06:17:21;;;;;;;3.90;3.00;;;;;;;3.83;74.52;100706.22;3078327;77;21125;-59
2020/12/26 06:21:27;;;;;;;3.30;2.75;;;;;;;3.82;74.39;100713.28;3078084;77;21148;-58
2020/12/26 06:25:32;;;;;;;6.45;2.90;;;;;;;3.78;74.10;100706.47;3078354;77;21120;-59
2020/12/26 06:29:36;;;;;;;7.42;4.00;;;;;;;3.74;74.07;100724.64;3078238;76;21490;-59
2020/12/26 06:33:43;;;;;;;6.10;4.42;;;;;;;3.70;74.15;100722.61;3071324;77;21888;-60
2020/12/26 06:37:48;;;;;;;9.85;6.37;;;;;;;3.67;74.03;100727.14;3022795;78;21143;-59
2020/12/26 06:42:12;;;;;;;8.88;3.95;;;;;;;3.65;74.28;100731.63;3022707;78;21100;-59
2020/12/26 06:46:29;;;;;;;5.62;3.35;;;;;;;3.61;73.55;100727.44;3022893;78;21093;-59
2020/12/26 06:50:34;;;;;;;1.95;1.37;;;;;;;3.55;73.64;100742.59;3021866;78;21159;-59
2020/12/26 06:54:39;;;;;;;2.10;1.45;;;;;;;3.51;73.20;100737.05;3020562;78;21105;-59
2020/12/26 06:58:50;;;;;;;2.75;2.55;;;;;;;3.47;72.86;100735.96;3019375;78;21125;-60
2020/12/26 07:03:20;;;;;;;6.20;2.70;;;;;;;3.49;73.27;100744.63;3019834;78;21085;-61
2020/12/26 07:07:39;;;;;;;2.47;2.17;;;;;;;3.48;73.08;100725.35;3019460;78;21582;-60
2020/12/26 07:11:51;;;;;;;3.17;2.87;;;;;;;3.46;72.95;100725.05;3015635;78;21129;-61
2020/12/26 07:15:54;;;;;;;1.85;1.75;;;;;;;3.45;72.89;100732.07;3020182;78;21132;-59
2020/12/26 07:19:58;;;;;;;3.33;1.62;;;;;;;3.43;72.67;100739.18;3019247;78;21089;-60
2020/12/26 07:24:02;;;;;;;5.08;2.08;;;;;;;3.41;72.52;100743.66;3021389;78;21124;-61
2020/12/26 07:28:05;;;;;;;2.20;1.02;;;;;;;3.40;72.16;100740.16;3019228;78;21140;-58
2020/12/26 07:32:09;;;;;;;3.75;2.20;;;;;;;3.43;72.48;100754.96;3018827;77;21148;-58
2020/12/26 07:36:24;;;;;;;4.95;2.42;;;;;;;3.47;72.66;100769.67;3020187;78;21128;-60
2020/12/26 07:40:41;;;;;;;3.45;2.30;;;;;;;3.48;72.19;100766.60;3021744;78;21129;-58
2020/12/26 07:44:45;;;;;;;4.97;2.58;;;;;;;3.50;72.03;100760.81;2968548;80;21129;-61
2020/12/26 07:48:55;;;;;;;5.42;2.85;;;;;;;3.52;71.51;100757.64;2967537;80;21128;-59
2020/12/26 07:53:05;;;;;;;2.37;1.90;;;;;;;3.53;71.18;100760.19;2968227;80;21140;-61
2020/12/26 07:57:09;;;;;;;1.72;1.45;;;;;;;3.54;71.20;100757.11;3015759;78;21145;-60
2020/12/26 08:01:19;;;;;;;2.80;1.55;;;;;;;3.56;71.16;100761.84;3018479;78;21137;-60
2020/12/26 08:05:26;;;;;;;5.65;1.60;;;;;;;3.58;71.23;100762.62;3017556;78;21124;-63
2020/12/26 08:09:29;;;;;;;1.47;0.75;;;;;;;3.59;70.62;100768.75;3018502;77;21145;-59
2020/12/26 08:13:34;;;;;;;0.93;0.78;;;;;;;3.66;71.51;100784.20;2987114;78;21137;-61
2020/12/26 08:17:39;;;;;;;1.82;1.55;;;;;;;3.69;71.22;100776.60;3018810;78;21094;-59
2020/12/26 08:21:42;;;;;;;3.37;1.22;;;;;;;3.70;70.82;100787.52;3018716;78;21141;-58
2020/12/26 08:25:49;;;;;;;2.98;1.72;;;;;;;3.70;71.59;100785.76;3014481;78;21137;-63
2020/12/26 08:29:52;;;;;;;3.60;1.70;;;;;;;3.73;71.83;100797.91;3018355;78;21152;-60
2020/12/26 08:34:23;;;;;;;2.80;1.92;;;;;;;3.74;71.38;100798.33;3019625;77;21117;-59
2020/12/26 08:38:49;;;;;;;6.35;2.60;;;;;;;3.73;71.50;100792.64;3017263;78;21101;-58
2020/12/26 08:42:53;;;;;;;9.48;2.55;;;;;;;3.75;71.64;100797.84;3020531;77;21543;-59
2020/12/26 08:46:56;;;;;;;5.37;3.35;;;;;;;3.78;71.54;100802.52;3021327;78;21141;-59
2020/12/26 08:51:02;;;;;;;7.95;2.60;;;;;;;3.78;71.56;100799.89;3020642;78;21105;-60
2020/12/26 08:55:08;;;;;;;5.37;3.50;;;;;;;3.81;71.62;100808.95;3020212;78;21085;-59
2020/12/26 08:59:14;;;;;;;3.60;3.13;;;;;;;3.83;71.41;100811.05;3020064;78;21089;-60
2020/12/26 09:03:22;;;;;;;3.33;2.70;;;;;;;3.88;71.46;100808.66;3020151;77;21543;-58
2020/12/26 09:07:25;;;;;;;6.22;3.95;;;;;;;3.88;71.35;100806.91;3018203;77;21100;-59
2020/12/26 09:11:31;;;;;;;8.88;5.00;;;;;;;3.91;71.60;100804.58;3021873;77;21069;-59
2020/12/26 09:16:01;;;;;;;5.85;3.15;;;;;;;3.94;72.09;100809.25;3022876;77;21132;-58
2020/12/26 09:20:05;;;;;;;7.28;3.60;;;;;;;3.97;71.87;100817.47;3023162;78;21065;-62
2020/12/26 09:24:21;;;;;;;5.75;4.03;;;;;;;3.95;72.04;100809.64;3020790;78;21148;-60
2020/12/26 09:28:25;;;;;;;5.95;4.05;;;;;;;3.99;72.17;100818.26;3021690;78;21867;-60
2020/12/26 09:32:28;;;;;;;10.68;4.58;;;;;;;4.02;72.24;100808.03;3021570;77;21164;-58
2020/12/26 09:36:31;;;;;;;7.85;3.90;;;;;;;4.06;72.53;100820.98;3019496;77;21165;-59
2020/12/26 09:40:38;;;;;;;6.55;3.80;;;;;;;4.09;72.14;100805.05;3017412;78;21555;-61
2020/12/26 09:44:41;;;;;;;6.33;5.12;;;;;;;4.12;72.19;100807.53;3019752;78;22186;-60
2020/12/26 09:48:46;;;;;;;5.20;3.83;;;;;;;4.18;72.51;100808.19;3020174;78;21572;-61
2020/12/26 09:52:49;;;;;;;7.47;4.80;;;;;;;4.25;72.10;100809.60;3017278;77;21113;-63
2020/12/26 09:56:57;;;;;;;4.97;4.50;;;;;;;4.35;72.45;100813.97;3017924;77;21141;-60
2020/12/26 10:01:01;;;;;;;9.68;4.45;;;;;;;4.39;71.64;100819.03;3019292;77;22212;-59
2020/12/26 10:05:05;;;;;;;5.62;3.20;;;;;;;4.47;71.18;100808.58;3015927;77;21125;-59
2020/12/26 10:09:08;;;;;;;9.43;4.60;;;;;;;4.50;71.07;100807.11;3018269;77;21125;-60
2020/12/26 10:13:12;;;;;;;6.95;4.15;;;;;;;4.53;70.82;100801.72;3020117;77;21108;-62
2020/12/26 10:17:15;;;;;;;3.30;2.95;;;;;;;4.56;70.66;100802.87;3019257;77;21125;-62
2020/12/26 10:21:18;;;;;;;16.00;4.65;;;;;;;4.57;69.83;100796.69;3019364;77;21137;-59
2020/12/26 10:25:26;;;;;;;5.50;3.40;;;;;;;4.54;70.03;100801.62;3019906;77;21558;-59
2020/12/26 10:29:29;;;;;;;4.10;2.90;;;;;;;4.59;69.63;100794.82;3017910;77;21570;-60
2020/12/26 10:33:32;;;;;;;5.80;3.87;;;;;;;4.60;69.58;100793.89;3018732;78;21141;-62
2020/12/26 10:37:36;;;;;;;10.20;4.97;;;;;;;4.62;69.74;100799.94;3018524;78;21075;-60
2020/12/26 10:41:44;;;;;;;10.43;5.33;;;;;;;4.60;69.81;100816.30;3020792;77;21140;-62
2020/12/26 10:45:47;;;;;;;6.95;4.70;;;;;;;4.65;70.86;100809.01;3017682;77;21756;-61
2020/12/26 10:49:50;;;;;;;7.35;4.58;;;;;;;4.73;69.56;100809.95;3019055;77;21153;-60
2020/12/26 10:53:53;;;;;;;5.35;3.90;;;;;;;4.77;69.48;100810.67;3020117;77;21167;-62
2020/12/26 10:57:57;;;;;;;6.72;3.47;;;;;;;4.77;69.42;100817.26;3021471;77;21132;-61
2020/12/26 11:02:03;;;;;;;5.53;2.85;;;;;;;4.79;67.87;100817.55;3014892;77;21141;-60
2020/12/26 11:06:11;;;;;;;4.20;2.90;;;;;;;4.81;68.27;100812.22;3011237;78;21136;-63
2020/12/26 11:10:16;;;;;;;8.08;4.42;;;;;;;4.84;68.42;100808.11;3018942;78;21090;-61
2020/12/26 11:14:20;;;;;;;7.65;4.80;;;;;;;4.92;68.44;100815.64;3019449;77;21144;-59
2020/12/26 11:18:25;;;;;;;6.28;3.33;;;;;;;4.97;67.23;100813.17;3015906;78;21156;-62
2020/12/26 11:22:28;;;;;;;6.12;3.47;;;;;;;4.99;66.86;100794.62;3024673;77;21160;-61
2020/12/26 11:26:32;;;;;;;9.18;3.90;;;;;;;5.08;66.74;100811.76;3019197;77;21136;-61
2020/12/26 11:30:35;;;;;;;8.45;3.50;;;;;;;5.11;67.41;100807.64;3011387;77;21128;-61
2020/12/26 11:34:39;;;;;;;7.05;3.75;;;;;;;5.12;65.64;100809.38;3018586;77;21130;-59
2020/12/26 11:38:48;;;;;;;4.62;2.37;;;;;;;5.14;66.62;100808.83;3019732;77;21598;-61
2020/12/26 11:42:52;;;;;;;9.33;3.27;;;;;;;5.21;66.23;100807.58;3018614;77;21167;-59
2020/12/26 11:47:01;;;;;;;3.40;2.67;;;;;;;5.32;66.47;100808.83;3022159;78;21614;-60
2020/12/26 11:51:07;;;;;;;4.70;2.45;;;;;;;5.35;65.95;100804.22;3021575;78;21072;-59
2020/12/26 11:55:11;;;;;;;2.92;1.80;;;;;;;5.40;65.54;100803.99;3020273;77;21129;-61
2020/12/26 11:59:15;;;;;;;4.08;2.60;;;;;;;5.40;64.45;100802.22;3019823;77;21140;-62
2020/12/26 12:03:19;;;;;;;6.55;2.72;;;;;;;5.37;63.51;100802.36;3021342;78;21148;-62
2020/12/26 12:07:24;;;;;;;4.72;3.22;;;;;;;5.36;63.59;100801.13;3019378;77;21184;-60
2020/12/26 12:11:28;;;;;;;4.08;1.70;;;;;;;5.31;63.62;100792.61;3016140;78;21120;-62
2020/12/26 12:15:33;;;;;;;3.30;2.27;;;;;;;5.28;63.67;100801.53;3015648;77;21164;-61
2020/12/26 12:19:37;;;;;;;1.98;1.70;;;;;;;5.26;63.37;100791.04;3004760;78;21109;-60
2020/12/26 12:23:40;;;;;;;2.85;1.67;;;;;;;5.28;63.26;100805.00;3016165;78;21152;-61
2020/12/26 12:27:43;;;;;;;3.62;1.85;;;;;;;5.20;62.48;100804.55;3014013;77;21094;-60
2020/12/26 12:31:46;;;;;;;4.42;2.35;;;;;;;5.11;63.19;100797.96;3016952;77;21133;-59
2020/12/26 12:35:52;;;;;;;2.02;1.90;;;;;;;5.13;64.00;100805.81;2999884;78;21171;-60
2020/12/26 12:39:55;;;;;;;9.28;2.77;;;;;;;5.18;64.55;100805.55;3007422;78;21716;-62
2020/12/26 12:44:01;;;;;;;3.90;1.95;;;;;;;5.22;64.03;100806.64;3012433;77;21614;-63
2020/12/26 12:48:06;;;;;;;3.60;1.72;;;;;;;5.28;63.75;100802.36;3001995;78;21140;-60
2020/12/26 12:52:10;;;;;;;2.57;2.07;;;;;;;5.34;62.61;100794.61;3010710;77;21603;-63
2020/12/26 12:56:14;;;;;;;3.65;1.50;;;;;;;5.43;63.94;100797.23;3014721;77;21157;-62
2020/12/26 13:00:21;;;;;;;5.25;1.80;;;;;;;5.47;62.92;100789.53;3015748;77;21112;-62
2020/12/26 13:04:32;;;;;;;2.17;1.20;;;;;;;5.44;62.62;100794.98;3009822;77;21141;-62
2020/12/26 13:08:38;;;;;;;1.95;1.60;;;;;;;5.42;61.85;100790.25;3020540;77;21113;-61
2020/12/26 13:12:42;;;;;;;3.12;1.92;;;;;;;5.34;62.85;100795.09;3026437;78;21137;-60
2020/12/26 13:16:49;;;;;;;1.67;1.50;;;;;;;5.33;63.04;100796.86;3025942;78;21187;-62
2020/12/26 13:20:53;;;;;;;2.17;1.55;;;;;;;5.33;64.12;100784.15;3025999;77;21109;-62
2020/12/26 13:24:56;;;;;;;4.17;1.77;;;;;;;5.39;64.88;100792.57;3019121;77;21595;-62
2020/12/26 13:29:01;;;;;;;3.05;1.37;;;;;;;5.42;64.18;100790.25;3015706;77;21157;-62
2020/12/26 13:33:07;;;;;;;4.62;3.40;;;;;;;5.39;64.44;100786.46;3016446;77;21590;-62
2020/12/26 13:37:10;;;;;;;3.93;1.83;;;;;;;5.37;63.52;100784.38;3019977;77;21496;-61
2020/12/26 13:41:13;;;;;;;2.70;1.80;;;;;;;5.33;64.00;100782.34;3019736;77;21077;-67
2020/12/26 13:45:17;;;;;;;4.40;2.87;;;;;;;5.30;64.60;100785.15;3020838;77;21121;-69
2020/12/26 13:49:21;;;;;;;2.70;1.95;;;;;;;5.22;65.00;100789.50;3020857;78;21571;-67
2020/12/26 13:53:32;;;;;;;5.55;2.77;;;;;;;5.15;64.37;100793.39;3020968;78;21141;-69
2020/12/26 13:57:36;;;;;;;8.10;2.37;;;;;;;5.07;64.37;100787.64;3021237;78;21688;-68
2020/12/26 14:01:46;;;;;;;4.37;2.37;;;;;;;4.99;64.27;100776.16;3021878;78;21152;-67
2020/12/26 14:05:51;;;;;;;2.83;1.85;;;;;;;4.87;64.17;100776.31;3021421;78;21097;-66
2020/12/26 14:09:55;;;;;;;6.28;2.33;;;;;;;4.80;65.59;100783.67;3021260;78;21478;-68
2020/12/26 14:13:59;;;;;;;4.05;1.60;;;;;;;4.69;66.05;100782.89;3021540;78;21109;-66
2020/12/26 14:18:04;;;;;;;2.72;1.98;;;;;;;4.61;64.37;100787.70;3021359;78;21164;-66
2020/12/26 14:22:07;;;;;;;2.95;1.82;;;;;;;4.54;65.10;100783.66;3021508;78;21122;-65
2020/12/26 14:26:11;;;;;;;4.65;2.45;;;;;;;4.47;65.60;100775.20;3021031;78;21196;-67
2020/12/26 14:30:16;;;;;;;1.82;1.37;;;;;;;4.40;66.47;100783.86;3021131;78;21145;-67
2020/12/26 14:34:22;;;;;;;2.30;1.62;;;;;;;4.33;66.15;100792.99;3021847;77;21138;-68
2020/12/26 14:38:26;;;;;;;3.27;1.45;;;;;;;4.26;66.28;100799.01;3022010;78;21093;-68
2020/12/26 14:42:31;;;;;;;2.37;1.45;;;;;;;4.19;65.95;100791.47;3021415;78;21661;-68
2020/12/26 14:46:35;;;;;;;3.42;1.52;;;;;;;4.18;66.64;100795.86;3021778;78;21132;-67
2020/12/26 14:50:40;;;;;;;3.60;1.70;;;;;;;4.16;67.03;100790.30;3021442;78;21112;-66
2020/12/26 14:54:43;;;;;;;2.92;1.37;;;;;;;4.09;66.81;100783.14;3021438;78;21128;-68
2020/12/26 14:58:48;;;;;;;5.05;1.40;;;;;;;4.03;66.71;100779.45;3021382;78;21112;-67
2020/12/26 15:02:52;;;;;;;5.60;1.92;;;;;;;3.98;66.65;100766.53;3024526;77;21112;-66
2020/12/26 15:06:58;;;;;;;4.83;1.77;;;;;;;3.92;66.63;100768.98;3021369;78;21113;-66
2020/12/26 15:11:05;;;;;;;;;;;;;;;3.85;66.16;100771.04;3021481;78;21144;-67
2020/12/26 15:15:11;;;;;;;5.47;4.47;;;;;;;3.78;66.71;100766.99;3018556;78;20188;-67
2020/12/26 15:19:14;;;;;;;7.87;4.85;;;;;;;3.73;66.68;100766.33;3018204;78;21156;-66
2020/12/26 15:23:17;;;;;;;6.10;3.65;;;;;;;3.69;66.71;100765.63;3018499;78;21119;-67
2020/12/26 15:27:21;;;;;;;4.80;2.80;;;;;;;3.64;66.75;100758.42;3018020;78;21128;-67
2020/12/26 15:31:24;;;;;;;4.55;2.17;;;;;;;3.58;67.28;100757.36;3018142;78;21108;-68
2020/12/26 15:35:27;;;;;;;7.22;2.75;;;;;;;3.51;67.61;100761.20;3018251;77;21437;-66
2020/12/26 15:39:31;;;;;;;7.55;4.35;;;;;;;3.45;67.79;100754.91;3018146;78;21133;-66
2020/12/26 15:43:34;;;;;;;8.48;3.58;;;;;;;3.39;67.70;100748.14;3018193;78;21133;-67
2020/12/26 15:47:38;;;;;;;16.87;3.80;;;;;;;3.28;67.95;100753.87;3018545;78;21133;-68
2020/12/26 15:51:47;;;;;;;8.93;4.67;;;;;;;3.22;68.00;100741.84;3017885;78;21121;-68
2020/12/26 15:55:59;;;;;;;9.48;5.30;;;;;;;3.19;68.50;100742.42;3116675;76;23397;-66
2020/12/26 16:00:04;;;;;;;9.40;4.25;;;;;;;3.05;68.91;100736.02;3064665;77;21101;-67
2020/12/26 16:04:08;;;;;;;6.60;4.20;;;;;;;2.98;69.33;100726.66;3064647;77;22130;-68
2020/12/26 16:08:11;;;;;;;7.47;5.35;;;;;;;2.96;69.68;100724.13;3063323;76;21126;-65
2020/12/26 16:12:14;;;;;;;8.55;5.15;;;;;;;2.95;69.82;100728.98;3065067;77;21226;-68
2020/12/26 16:16:17;;;;;;;12.43;7.25;;;;;;;2.92;69.77;100723.84;3065439;77;21108;-65
2020/12/26 16:20:21;;;;;;;10.53;6.28;;;;;;;2.84;69.82;100720.70;3065050;77;21590;-66
2020/12/26 16:24:24;;;;;;;9.30;6.70;;;;;;;2.79;70.09;100722.19;3065673;77;21136;-66
2020/12/26 16:28:28;;;;;;;10.90;5.10;;;;;;;2.76;70.56;100713.61;3065708;76;21131;-66
2020/12/26 16:32:31;;;;;;;8.38;4.22;;;;;;;2.73;71.01;100715.89;3065155;76;21109;-69
2020/12/26 16:36:35;;;;;;;8.45;5.00;;;;;;;2.69;71.34;100717.78;3020578;77;21129;-67
2020/12/26 16:40:38;;;;;;;9.70;4.83;;;;;;;2.68;71.49;100709.52;3010165;79;21155;-66
2020/12/26 16:44:41;;;;;;;19.12;5.12;;;;;;;2.67;71.36;100709.12;3009774;79;21135;-68
2020/12/26 16:48:44;;;;;;;9.58;6.45;;;;;;;2.65;71.25;100701.77;3009961;79;21163;-68
2020/12/26 16:52:48;;;;;;;13.68;8.83;;;;;;;2.64;70.96;100701.81;3009238;78;21155;-69
2020/12/26 16:56:52;;;;;;;20.85;11.93;;;;;;;2.66;70.61;100700.84;3006172;79;21586;-66
2020/12/26 17:00:56;;;;;;;23.98;16.50;;;;;;;2.63;70.40;100698.35;3012895;78;21140;-66
2020/12/26 17:05:01;;;;;;;25.90;14.78;;;;;;;2.65;70.37;100695.64;3007507;78;21143;-65
2020/12/26 17:09:06;;;;;;;34.05;18.37;;;;;;;2.74;69.77;100697.89;3005370;79;21163;-67
2020/12/26 17:13:09;;;;;;;38.30;24.82;;;;;;;2.73;69.49;100705.39;3005334;79;21163;-65
2020/12/26 17:17:13;;;;;;;45.60;26.33;;;;;;;2.68;69.53;100705.57;3005161;79;21133;-68
2020/12/26 17:21:19;;;;;;;44.75;24.87;;;;;;;2.67;69.65;100701.23;3005316;79;21171;-66
2020/12/26 17:25:24;;;;;;;28.38;17.87;;;;;;;2.73;69.72;100698.82;3005444;79;21132;-68
2020/12/26 17:29:28;;;;;;;49.77;22.17;;;;;;;2.80;69.33;100688.91;3005827;79;21131;-70
2020/12/26 17:33:31;;;;;;;36.77;21.37;;;;;;;2.86;69.32;100688.63;3005137;77;21136;-69
2020/12/26 17:37:35;;;;;;;30.25;20.17;;;;;;;3.00;69.76;100692.84;3005510;79;21096;-69
2020/12/26 17:41:39;;;;;;;31.23;17.98;;;;;;;3.10;69.14;100679.27;3005278;79;21136;-66
2020/12/26 17:45:43;;;;;;;28.10;18.45;;;;;;;3.18;69.11;100677.17;3004956;79;21100;-68
2020/12/26 17:49:47;;;;;;;32.65;17.85;;;;;;;3.18;68.63;100669.29;3005380;79;21136;-68
2020/12/26 17:53:50;;;;;;;31.80;15.35;;;;;;;3.15;68.86;100666.80;3005254;79;21140;-68
2020/12/26 17:57:54;;;;;;;27.85;14.78;;;;;;;3.18;69.12;100671.92;3005549;79;21104;-67
2020/12/26 18:01:59;;;;;;;26.97;16.42;;;;;;;3.19;69.33;100676.25;3005078;78;21162;-67
2020/12/26 18:06:05;;;;;;;20.20;15.05;;;;;;;3.23;69.36;100671.69;3005256;79;21148;-69
2020/12/26 18:10:08;;;;;;;19.27;13.28;;;;;;;3.24;69.17;100667.69;3005191;79;22164;-70
2020/12/26 18:14:11;;;;;;;27.25;13.65;;;;;;;3.21;69.15;100670.46;3012486;78;21101;-67
2020/12/26 18:18:15;;;;;;;17.48;10.60;;;;;;;3.16;69.35;100671.58;3013705;79;21152;-67
2020/12/26 18:22:18;;;;;;;20.32;14.30;;;;;;;3.18;69.48;100669.73;3013574;79;21136;-68
2020/12/26 18:26:21;;;;;;;22.17;15.30;;;;;;;3.18;69.57;100670.60;3013846;79;21085;-68
2020/12/26 18:30:25;;;;;;;23.80;19.37;;;;;;;3.19;69.65;100669.68;3013931;79;21153;-68
2020/12/26 18:34:29;;;;;;;36.35;21.73;;;;;;;3.20;69.34;100662.19;3013730;77;21133;-69
2020/12/26 18:38:35;;;;;;;37.13;20.77;;;;;;;3.18;69.34;100661.84;3013832;79;21141;-66
2020/12/26 18:42:38;;;;;;;30.97;20.60;;;;;;;3.14;69.57;100659.36;3014210;79;21116;-70
2020/12/26 18:46:47;;;;;;;22.37;14.68;;;;;;;3.12;69.73;100662.52;3013660;79;21097;-67
2020/12/26 18:50:51;;;;;;;28.55;17.15;;;;;;;3.12;69.89;100660.34;3013364;79;22180;-70
2020/12/26 18:54:56;;;;;;;25.68;17.82;;;;;;;3.15;69.79;100658.91;3007161;78;21173;-67
2020/12/26 18:59:00;;;;;;;24.90;18.65;;;;;;;3.17;70.02;100658.38;3000350;79;22096;-69
2020/12/26 19:03:04;;;;;;;34.90;20.20;;;;;;;3.15;69.83;100660.23;3040394;78;21105;-68
2020/12/26 19:07:09;;;;;;;27.17;17.62;;;;;;;3.13;69.92;100669.94;2958884;80;21646;-68
2020/12/26 19:11:22;;;;;;;23.73;16.60;;;;;;;3.16;69.95;100667.19;2948250;80;21137;-66